Time;durP1;ratioP1;P1;durP2;ratioP2;P2;SDS_P1;SDS_P2;PMS_P1;PMS_P2;Temp;Humidity;BMP_temperature;BMP_pressure;BME280_temperature;BME280_humidity;BME280_pressure;Samples;Min_cycle;Max_cycle;Signal;HPM_P1;HPM_P2
2022/06/13 00:00:53;;;;;;;6.43;2.20;;;19.30;75.50;;;;;;5011841;28;20435;-51
2022/06/13 00:03:19;;;;;;;6.70;3.00;;;19.20;75.40;;;;;;5011564;28;20439;-51
2022/06/13 00:05:46;;;;;;;5.77;2.63;;;19.20;75.90;;;;;;5011938;28;20432;-50
2022/06/13 00:08:12;;;;;;;5.53;2.07;;;18.70;75.70;;;;;;5011707;28;20459;-51
2022/06/13 00:10:39;;;;;;;4.47;2.17;;;19.00;76.30;;;;;;5011510;28;20957;-51
2022/06/13 00:13:06;;;;;;;5.70;2.40;;;19.70;76.90;;;;;;5011771;28;20452;-50
2022/06/13 00:15:34;;;;;;;4.20;2.10;;;19.20;77.20;;;;;;5011561;28;20488;-51
2022/06/13 00:18:01;;;;;;;5.87;2.50;;;19.00;76.90;;;;;;5011892;28;20563;-50
2022/06/13 00:20:27;;;;;;;7.97;2.27;;;19.10;77.40;;;;;;5011666;28;20447;-50
2022/06/13 00:22:54;;;;;;;6.87;2.67;;;19.40;78.10;;;;;;5011617;28;20871;-51
2022/06/13 00:25:20;;;;;;;3.60;1.87;;;19.30;78.10;;;;;;5014559;28;20435;-52
2022/06/13 00:27:48;;;;;;;8.27;2.70;;;19.00;77.70;;;;;;5015200;28;20682;-52
2022/06/13 00:30:14;;;;;;;7.50;2.97;;;19.00;77.90;;;;;;4997502;28;20451;-51
2022/06/13 00:32:42;;;;;;;9.67;2.30;;;19.00;78.00;;;;;;5015307;28;20844;-52
2022/06/13 00:35:09;;;;;;;3.13;1.47;;;18.90;78.20;;;;;;5015155;28;20852;-52
2022/06/13 00:37:36;;;;;;;5.00;2.27;;;19.10;78.80;;;;;;5037930;23;20495;-47
2022/06/13 00:40:03;;;;;;;7.13;1.73;;;18.60;78.20;;;;;;5013982;28;20772;-46
2022/06/13 00:42:29;;;;;;;6.60;2.83;;;18.90;78.70;;;;;;5014313;28;20440;-45
2022/06/13 00:45:13;;;;;;;8.70;2.90;;;18.30;78.60;;;;;;5013988;28;20440;-47
2022/06/13 00:47:44;;;;;;;6.90;2.17;;;18.80;79.30;;;;;;5013964;28;20463;-44
2022/06/13 00:50:16;;;;;;;4.67;2.43;;;18.80;79.50;;;;;;4996032;28;20456;-46
2022/06/13 00:52:46;;;;;;;4.47;1.97;;;18.70;79.80;;;;;;5013967;28;20446;-46
2022/06/13 00:55:19;;;;;;;8.07;2.30;;;18.30;79.30;;;;;;5013683;28;20483;-46
2022/06/13 00:57:45;;;;;;;5.47;1.70;;;18.60;79.50;;;;;;5013980;28;20461;-46
2022/06/13 01:00:16;;;;;;;5.60;2.00;;;18.60;79.80;;;;;;5013613;28;20450;-44
2022/06/13 01:02:47;;;;;;;10.40;2.90;;;18.60;79.80;;;;;;5013686;28;20435;-46
2022/06/13 01:05:16;;;;;;;4.33;1.90;;;18.80;80.50;;;;;;5013876;28;20432;-45
2022/06/13 01:07:43;;;;;;;5.47;1.97;;;18.80;80.30;;;;;;5013665;28;20975;-44
2022/06/13 01:12:55;;;;;;;5.10;2.10;;;18.40;80.60;;;;;;5013514;28;20438;-45
2022/06/13 01:15:40;;;;;;;5.20;2.30;;;18.30;81.10;;;;;;4995512;28;20486;-45
2022/06/13 01:18:23;;;;;;;6.10;1.93;;;18.30;81.50;;;;;;5013420;28;20463;-47
2022/06/13 01:21:04;;;;;;;4.80;2.03;;;18.30;81.40;;;;;;5013512;28;20457;-45
2022/06/13 01:24:01;;;;;;;7.23;2.83;;;18.20;81.80;;;;;;5013458;28;20800;-45
2022/06/13 01:27:06;;;;;;;5.80;2.90;;;18.20;81.80;;;;;;5013405;28;20951;-45
2022/06/13 01:29:45;;;;;;;5.37;2.13;;;18.20;82.60;;;;;;5013328;28;20439;-45
2022/06/13 01:32:22;;;;;;;5.97;2.20;;;18.20;82.60;;;;;;5013445;28;20439;-44
2022/06/13 01:34:58;;;;;;;5.83;2.60;;;18.30;82.80;;;;;;5012938;28;20489;-45
2022/06/13 01:37:40;;;;;;;4.43;2.03;;;18.00;82.70;;;;;;5012401;28;20463;-45
2022/06/13 01:40:15;;;;;;;5.77;2.03;;;17.80;82.90;;;;;;5012566;28;20444;-45
2022/06/13 01:42:52;;;;;;;4.60;1.80;;;18.00;83.50;;;;;;5013093;28;20443;-47
2022/06/13 01:45:31;;;;;;;6.03;2.03;;;18.00;83.80;;;;;;5013392;28;20784;-45
2022/06/13 01:48:07;;;;;;;5.77;2.20;;;18.00;83.90;;;;;;5013293;28;20465;-47
2022/06/13 01:50:40;;;;;;;5.90;2.43;;;18.10;84.50;;;;;;5012831;28;20438;-48
2022/06/13 01:53:17;;;;;;;7.60;2.80;;;17.90;84.70;;;;;;5013152;28;20445;-46
2022/06/13 01:55:49;;;;;;;6.23;2.13;;;17.60;84.90;;;;;;5012963;28;20491;-46
2022/06/13 01:58:20;;;;;;;10.87;2.80;;;17.80;86.40;;;;;;5012974;28;20454;-47
2022/06/13 02:00:55;;;;;;;5.83;2.30;;;17.80;86.10;;;;;;5012612;28;20447;-45
2022/06/13 02:03:29;;;;;;;7.17;2.50;;;17.70;86.70;;;;;;5012765;28;20423;-46
2022/06/13 02:06:02;;;;;;;5.63;2.50;;;17.50;87.30;;;;;;5012796;28;20817;-46
2022/06/13 02:08:33;;;;;;;9.63;3.67;;;17.80;87.40;;;;;;5012549;28;20821;-47
2022/06/13 02:11:06;;;;;;;7.13;2.70;;;17.60;88.10;;;;;;5012699;28;20443;-46
2022/06/13 02:13:37;;;;;;;6.57;2.93;;;17.50;88.60;;;;;;5012689;28;20436;-46
2022/06/13 02:16:09;;;;;;;5.33;2.33;;;17.50;88.70;;;;;;5012413;28;20485;-45
2022/06/13 02:18:45;;;;;;;8.30;2.47;;;17.50;89.30;;;;;;5012025;28;20547;-47
2022/06/13 02:21:14;;;;;;;8.07;2.30;;;17.30;89.20;;;;;;5012495;28;20779;-45
2022/06/13 02:23:46;;;;;;;8.97;3.30;;;17.50;89.90;;;;;;5012533;28;20842;-45
2022/06/13 02:26:17;;;;;;;5.67;3.07;;;17.50;89.40;;;;;;5012226;28;20539;-46
2022/06/13 02:28:48;;;;;;;6.83;2.50;;;17.50;90.00;;;;;;5011935;28;20460;-45
2022/06/13 02:31:17;;;;;;;6.03;2.80;;;17.40;90.10;;;;;;5012540;28;20540;-48
2022/06/13 02:33:50;;;;;;;10.30;2.80;;;17.50;90.50;;;;;;4994456;28;20461;-47
2022/06/13 02:36:23;;;;;;;7.63;2.57;;;17.40;90.30;;;;;;5012194;28;20486;-47
2022/06/13 02:38:57;;;;;;;5.97;2.60;;;17.40;90.40;;;;;;5011491;28;20482;-45
2022/06/13 02:41:27;;;;;;;11.00;2.73;;;17.40;90.40;;;;;;5012231;28;20781;-46
2022/06/13 02:43:59;;;;;;;6.83;2.90;;;17.50;90.30;;;;;;5012004;28;20439;-45
2022/06/13 02:46:36;;;;;;;5.83;2.33;;;17.50;90.20;;;;;;5012021;28;20435;-46
2022/06/13 02:49:11;;;;;;;8.30;2.40;;;17.00;90.00;;;;;;5011164;28;20475;-45
2022/06/13 02:51:42;;;;;;;7.73;3.13;;;17.50;90.00;;;;;;5011877;28;20457;-46
2022/06/13 02:54:14;;;;;;;6.63;2.77;;;17.80;90.10;;;;;;5012077;28;20933;-47
2022/06/13 02:59:41;;;;;;;7.70;2.60;;;17.50;89.60;;;;;;5010724;28;20443;-47
2022/06/13 03:02:09;;;;;;;4.93;2.33;;;17.70;89.80;;;;;;5011824;28;20797;-47
2022/06/13 03:04:41;;;;;;;8.20;2.73;;;17.60;89.80;;;;;;5011653;28;20438;-47
2022/06/13 03:07:15;;;;;;;7.37;2.97;;;17.40;89.90;;;;;;5011447;28;20462;-45
2022/06/13 03:09:47;;;;;;;7.47;2.87;;;17.90;90.10;;;;;;5011550;28;20468;-45
2022/06/13 03:12:20;;;;;;;8.10;2.70;;;17.30;90.10;;;;;;5011831;28;20444;-45
2022/06/13 03:14:56;;;;;;;6.80;3.40;;;17.90;90.70;;;;;;5011383;28;20493;-45
2022/06/13 03:17:33;;;;;;;5.97;2.70;;;17.50;90.90;;;;;;5011356;28;20460;-46
2022/06/13 03:20:10;;;;;;;10.27;2.50;;;17.30;90.90;;;;;;5010862;28;20448;-47
2022/06/13 03:22:43;;;;;;;5.93;2.37;;;17.50;91.10;;;;;;5011456;28;20432;-45
2022/06/13 03:25:15;;;;;;;7.30;3.00;;;17.60;91.20;;;;;;5011356;28;20445;-45
2022/06/13 03:27:46;;;;;;;4.87;2.70;;;17.40;91.20;;;;;;5011662;28;20554;-44
2022/06/13 03:30:17;;;;;;;6.23;3.17;;;17.50;91.20;;;;;;5011095;28;20433;-45
2022/06/13 03:33:40;;;;;;;5.97;3.40;;;17.50;91.20;;;;;;4993476;28;20444;-46
2022/06/13 03:35:37;;;;;;;7.00;3.30;;;17.30;91.20;;;;;;5011168;28;21034;-44
2022/06/13 03:38:06;;;;;;;8.50;3.20;;;17.30;91.20;;;;;;5011148;28;21009;-46
2022/06/13 03:40:36;;;;;;;5.83;3.10;;;17.40;91.30;;;;;;5010893;28;20447;-46
2022/06/13 03:43:08;;;;;;;8.73;3.40;;;17.30;91.40;;;;;;5010789;28;20433;-46
2022/06/13 03:45:39;;;;;;;4.73;3.10;;;17.50;91.50;;;;;;5011010;28;20755;-45
2022/06/13 03:48:11;;;;;;;5.37;2.67;;;17.10;91.30;;;;;;5010874;28;20451;-45
2022/06/13 03:50:43;;;;;;;7.33;3.30;;;17.30;91.30;;;;;;5010963;28;20446;-43
2022/06/13 03:53:16;;;;;;;12.47;3.10;;;17.20;91.30;;;;;;5011096;28;20436;-45
2022/06/13 03:55:46;;;;;;;5.13;2.90;;;17.40;91.30;;;;;;5011251;28;20473;-44
2022/06/13 03:58:17;;;;;;;7.07;3.30;;;17.30;91.30;;;;;;5011563;28;20460;-46
2022/06/13 04:00:49;;;;;;;6.07;2.50;;;17.50;91.30;;;;;;5015280;28;20445;-45
2022/06/13 04:03:16;;;;;;;10.63;2.47;;;17.30;91.10;;;;;;5015409;28;20921;-44
2022/06/13 04:05:56;;;;;;;11.70;3.40;;;17.30;91.10;;;;;;4997660;28;20472;-45
2022/06/13 04:08:23;;;;;;;9.10;3.30;;;17.40;91.00;;;;;;5015443;28;20452;-46
2022/06/13 04:10:59;;;;;;;5.93;2.63;;;17.40;90.80;;;;;;4997289;28;20461;-45
2022/06/13 04:13:52;;;;;;;7.30;3.27;;;17.30;90.60;;;;;;5015422;28;20444;-44
2022/06/13 04:16:27;;;;;;;7.30;3.13;;;17.30;90.40;;;;;;5015270;28;20473;-44
2022/06/13 04:19:13;;;;;;;7.30;3.10;;;17.50;90.40;;;;;;5014413;28;20487;-46
2022/06/13 04:21:48;;;;;;;13.40;2.93;;;17.60;90.20;;;;;;5015146;28;20452;-46
2022/06/13 04:24:22;;;;;;;9.30;4.13;;;17.50;90.00;;;;;;5014706;28;20432;-45
2022/06/13 04:26:54;;;;;;;8.77;3.60;;;17.70;89.80;;;;;;5014878;28;20433;-45
2022/06/13 04:29:27;;;;;;;8.37;3.07;;;17.60;89.10;;;;;;5014493;28;20442;-45
2022/06/13 04:31:56;;;;;;;6.53;2.70;;;18.00;88.70;;;;;;5015324;28;20889;-46
2022/06/13 04:34:28;;;;;;;3.63;2.53;;;17.90;87.90;;;;;;5015072;28;20443;-45
2022/06/13 04:36:56;;;;;;;6.10;2.60;;;18.30;87.60;;;;;;5014214;28;20855;-46
2022/06/13 04:39:32;;;;;;;6.40;3.50;;;18.60;87.00;;;;;;5014157;28;20451;-45
2022/06/13 04:42:00;;;;;;;8.07;3.50;;;18.30;86.00;;;;;;5014439;28;20441;-45
2022/06/13 04:44:30;;;;;;;10.67;3.50;;;18.20;85.60;;;;;;5014324;28;20788;-45
2022/06/13 04:46:58;;;;;;;11.30;3.53;;;18.80;86.00;;;;;;5014101;28;20450;-44
2022/06/13 04:49:29;;;;;;;12.00;3.83;;;18.20;85.10;;;;;;5014367;28;20434;-44
2022/06/13 04:51:59;;;;;;;8.00;2.97;;;18.30;85.30;;;;;;5013975;28;20810;-47
2022/06/13 04:54:33;;;;;;;9.83;3.20;;;18.70;85.40;;;;;;5014018;28;20816;-45
2022/06/13 04:57:01;;;;;;;8.43;2.90;;;18.50;84.80;;;;;;5013603;28;20848;-46
2022/06/13 04:59:29;;;;;;;7.63;2.80;;;19.00;84.70;;;;;;5013415;28;20431;-46
2022/06/13 05:01:57;;;;;;;7.27;3.13;;;18.80;84.00;;;;;;4995849;28;20494;-46
2022/06/13 05:04:30;;;;;;;6.90;2.77;;;18.70;84.40;;;;;;5013647;28;20446;-45
2022/06/13 05:07:01;;;;;;;12.93;3.40;;;18.60;83.60;;;;;;5013398;28;20869;-46
2022/06/13 05:09:31;;;;;;;7.50;3.40;;;18.50;83.00;;;;;;5012953;28;20443;-45
2022/06/13 05:12:06;;;;;;;5.77;2.80;;;18.70;82.90;;;;;;5012382;28;20458;-45
2022/06/13 05:14:36;;;;;;;5.40;3.53;;;18.70;82.50;;;;;;5013552;28;20904;-46
2022/06/13 05:17:26;;;;;;;5.53;2.33;;;18.80;81.90;;;;;;5013141;28;20892;-46
2022/06/13 05:20:03;;;;;;;6.30;3.20;;;18.90;81.00;;;;;;5013030;28;20753;-47
2022/06/13 05:23:02;;;;;;;10.93;3.27;;;18.90;80.40;;;;;;5012821;28;20927;-46
2022/06/13 05:25:44;;;;;;;6.57;3.17;;;19.10;79.80;;;;;;5008379;28;20458;-46
2022/06/13 05:28:11;;;;;;;7.17;3.90;;;19.40;79.70;;;;;;5012876;28;20515;-45
2022/06/13 05:30:41;;;;;;;7.80;3.00;;;19.40;79.60;;;;;;5012490;28;20550;-46
2022/06/13 05:33:09;;;;;;;4.63;2.63;;;19.40;78.10;;;;;;4994929;28;20821;-46
2022/06/13 05:35:36;;;;;;;12.50;3.30;;;19.50;78.00;;;;;;5012431;28;20467;-46
2022/06/13 05:38:05;;;;;;;6.07;3.37;;;19.20;77.50;;;;;;5011928;28;20574;-46
2022/06/13 05:40:32;;;;;;;9.77;3.80;;;19.50;77.60;;;;;;5012553;28;20512;-45
2022/06/13 05:42:58;;;;;;;9.60;3.77;;;19.60;77.80;;;;;;5012978;28;20439;-46
2022/06/13 05:45:25;;;;;;;10.73;4.00;;;19.70;77.60;;;;;;5011947;28;20452;-48
2022/06/13 05:47:53;;;;;;;9.90;3.43;;;19.80;77.40;;;;;;5012160;28;20474;-47
2022/06/13 05:50:23;;;;;;;8.20;3.00;;;19.40;76.70;;;;;;5012518;28;20514;-46
2022/06/13 05:52:50;;;;;;;7.73;3.50;;;20.00;76.10;;;;;;5012529;28;20462;-47
2022/06/13 05:55:19;;;;;;;10.50;3.73;;;20.20;75.50;;;;;;5012566;28;20789;-47
2022/06/13 05:57:45;;;;;;;6.70;3.23;;;20.20;74.50;;;;;;5012293;28;20448;-45
2022/06/13 06:00:17;;;;;;;9.37;3.37;;;20.30;74.10;;;;;;5012320;28;20440;-45
2022/06/13 06:02:44;;;;;;;5.27;2.53;;;20.40;72.60;;;;;;5012212;28;20433;-47
2022/06/13 06:05:11;;;;;;;9.50;2.87;;;20.50;71.90;;;;;;5012311;28;21047;-45
2022/06/13 06:07:38;;;;;;;6.13;2.57;;;20.30;71.30;;;;;;4994077;28;21008;-47
2022/06/13 06:10:06;;;;;;;8.37;3.03;;;20.40;70.90;;;;;;5011734;28;20476;-46
2022/06/13 06:12:34;;;;;;;18.60;4.37;;;20.50;70.70;;;;;;5012019;28;20433;-45
2022/06/13 06:15:01;;;;;;;12.23;2.63;;;20.10;69.80;;;;;;5012203;28;20436;-46
2022/06/13 06:17:27;;;;;;;13.27;3.73;;;20.40;68.10;;;;;;5011648;28;20553;-46
2022/06/13 06:19:54;;;;;;;9.10;3.07;;;20.30;67.90;;;;;;5012033;28;20437;-49
2022/06/13 06:22:21;;;;;;;6.63;2.57;;;20.50;67.30;;;;;;5011466;28;20446;-49
2022/06/13 06:24:48;;;;;;;4.67;2.23;;;20.40;66.20;;;;;;5012217;28;20438;-50
2022/06/13 06:27:16;;;;;;;5.90;2.37;;;20.30;66.50;;;;;;5012328;28;20473;-51
2022/06/13 06:29:44;;;;;;;7.40;2.80;;;20.10;66.60;;;;;;5011422;28;20775;-50
2022/06/13 06:32:11;;;;;;;8.03;2.93;;;20.10;67.10;;;;;;5011989;28;20486;-49
2022/06/13 06:34:38;;;;;;;8.17;2.90;;;20.10;66.20;;;;;;5012224;28;20528;-49
2022/06/13 06:39:33;;;;;;;7.03;2.60;;;19.80;65.60;;;;;;5012976;28;20452;-44
2022/06/13 06:42:00;;;;;;;9.53;2.00;;;19.60;66.10;;;;;;5013708;28;20456;-45
2022/06/13 06:44:28;;;;;;;12.00;2.73;;;19.70;66.20;;;;;;5013080;28;20543;-45
2022/06/13 06:46:56;;;;;;;9.93;2.80;;;19.90;66.20;;;;;;5014777;28;20445;-44
2022/06/13 06:49:22;;;;;;;7.77;2.27;;;19.60;64.60;;;;;;5014643;28;20457;-44
2022/06/13 06:51:49;;;;;;;4.90;1.90;;;19.70;64.80;;;;;;5014653;28;20425;-44
2022/06/13 06:59:57;;;;;;;4.80;2.30;;;19.90;63.60;;;;;;5015215;28;20421;-45
2022/06/13 07:02:29;;;;;;;7.00;2.47;;;19.70;63.20;;;;;;5015303;28;20447;-45
2022/06/13 07:04:59;;;;;;;7.90;2.60;;;19.70;63.40;;;;;;5014971;28;20455;-44
2022/06/13 07:07:26;;;;;;;6.00;2.97;;;19.70;63.60;;;;;;5014396;28;20468;-44
2022/06/13 07:09:52;;;;;;;3.90;2.40;;;19.70;63.90;;;;;;5015143;28;20436;-43
2022/06/13 07:12:19;;;;;;;8.80;1.97;;;19.40;63.30;;;;;;5015160;28;20440;-45
2022/06/13 07:14:46;;;;;;;4.00;2.00;;;19.90;63.60;;;;;;5014658;28;20444;-45
2022/06/13 07:17:14;;;;;;;5.73;2.30;;;20.10;63.20;;;;;;5014523;28;20532;-45
2022/06/13 07:19:44;;;;;;;5.20;2.17;;;20.10;62.90;;;;;;5013758;28;20491;-44
2022/06/13 07:22:14;;;;;;;4.27;2.17;;;20.30;62.90;;;;;;5014503;28;20460;-45
2022/06/13 07:24:40;;;;;;;7.87;2.40;;;20.40;62.80;;;;;;5013721;28;20929;-44
2022/06/13 07:27:07;;;;;;;5.00;1.90;;;20.90;62.70;;;;;;5014128;28;20446;-45
2022/06/13 07:29:33;;;;;;;3.30;2.00;;;20.60;61.10;;;;;;5013513;28;20436;-44
2022/06/13 07:32:06;;;;;;;4.87;2.07;;;20.40;59.90;;;;;;5013501;28;20521;-45
2022/06/13 07:34:35;;;;;;;5.67;2.27;;;20.70;59.60;;;;;;5012167;28;20442;-45
2022/06/13 07:37:05;;;;;;;3.43;1.60;;;20.60;59.10;;;;;;5013715;28;20479;-45
2022/06/13 07:39:31;;;;;;;11.17;3.50;;;20.40;58.60;;;;;;5013519;28;20445;-45
2022/06/13 07:41:58;;;;;;;3.47;1.40;;;20.30;59.10;;;;;;5012550;28;20453;-44
2022/06/13 07:44:28;;;;;;;6.83;1.90;;;20.20;58.90;;;;;;5013461;28;20440;-46
2022/06/13 07:46:55;;;;;;;6.80;1.50;;;20.10;59.40;;;;;;5013153;28;20451;-46
2022/06/13 07:49:22;;;;;;;5.53;2.10;;;19.80;59.40;;;;;;5012578;28;20453;-46
2022/06/13 07:51:49;;;;;;;4.20;2.07;;;19.90;59.60;;;;;;5012906;28;20765;-45
2022/06/13 07:54:17;;;;;;;3.97;1.60;;;19.90;59.30;;;;;;5013373;28;20857;-45
2022/06/13 07:56:44;;;;;;;6.40;1.60;;;19.90;59.10;;;;;;5012978;28;20478;-45
2022/06/13 07:59:14;;;;;;;6.03;2.20;;;20.10;59.20;;;;;;5012608;28;20456;-45
2022/06/13 08:01:41;;;;;;;6.37;2.03;;;19.80;58.60;;;;;;5012732;28;20451;-45
2022/06/13 08:04:08;;;;;;;4.27;1.87;;;20.30;59.00;;;;;;5012530;28;20428;-43
2022/06/13 08:06:38;;;;;;;4.67;1.77;;;19.60;58.60;;;;;;5012214;28;20433;-45
2022/06/13 08:09:05;;;;;;;4.77;1.77;;;20.00;59.10;;;;;;5012746;28;20945;-45
2022/06/13 08:11:35;;;;;;;5.67;1.77;;;19.90;59.30;;;;;;5012969;28;20445;-45
2022/06/13 08:14:06;;;;;;;3.27;1.80;;;20.00;59.40;;;;;;5012717;28;20456;-44
2022/06/13 08:16:34;;;;;;;2.67;1.70;;;19.90;59.70;;;;;;5012772;28;20511;-44
2022/06/13 08:19:01;;;;;;;6.33;1.90;;;20.00;60.10;;;;;;5011987;28;20516;-45
2022/06/13 08:21:28;;;;;;;6.00;1.97;;;20.20;60.80;;;;;;5012429;28;20991;-44
2022/06/13 08:23:55;;;;;;;6.37;2.00;;;20.40;60.90;;;;;;5013272;28;20913;-45
2022/06/13 08:26:22;;;;;;;4.27;1.63;;;20.30;60.60;;;;;;5012450;28;21013;-45
2022/06/13 08:28:50;;;;;;;5.30;2.20;;;20.70;60.40;;;;;;5012157;28;20452;-45
2022/06/13 08:31:20;;;;;;;4.00;2.47;;;20.40;60.10;;;;;;5013013;28;20436;-45
2022/06/13 08:33:48;;;;;;;3.67;1.77;;;20.80;60.90;;;;;;5014484;28;20847;-44
2022/06/13 08:36:14;;;;;;;10.03;2.60;;;20.50;60.40;;;;;;5013630;28;20451;-45
2022/06/13 08:38:41;;;;;;;15.03;3.30;;;20.60;60.50;;;;;;5013338;28;20903;-43
2022/06/13 08:41:16;;;;;;;6.43;2.10;;;20.60;60.40;;;;;;5013674;28;20445;-45
2022/06/13 08:44:01;;;;;;;6.90;2.30;;;20.70;60.00;;;;;;5014407;28;20438;-44
2022/06/13 08:46:36;;;;;;;8.23;2.20;;;20.70;58.60;;;;;;5017300;28;20434;-46
2022/06/13 08:49:10;;;;;;;5.20;1.70;;;20.80;59.10;;;;;;5016852;28;20448;-46
2022/06/13 08:51:46;;;;;;;6.67;2.37;;;20.90;59.00;;;;;;5017444;28;20949;-45
2022/06/13 08:54:17;;;;;;;5.13;2.40;;;21.10;58.40;;;;;;5017241;28;20441;-44
2022/06/13 08:56:44;;;;;;;3.30;1.63;;;21.10;57.70;;;;;;5017032;28;20477;-45
2022/06/13 08:59:25;;;;;;;5.10;2.13;;;21.50;57.90;;;;;;5016566;28;20459;-44
2022/06/13 09:01:57;;;;;;;8.87;2.80;;;21.50;57.70;;;;;;5015668;28;20477;-44
2022/06/13 09:04:30;;;;;;;5.07;2.17;;;21.70;57.40;;;;;;5016841;28;20967;-45
2022/06/13 09:07:02;;;;;;;6.47;2.87;;;21.80;57.10;;;;;;5016699;28;20435;-45
2022/06/13 09:09:36;;;;;;;8.13;2.63;;;22.10;56.90;;;;;;5017186;28;20454;-44
2022/06/13 09:12:07;;;;;;;8.43;2.60;;;21.90;56.30;;;;;;5017147;28;20438;-45
2022/06/13 09:14:38;;;;;;;5.90;2.00;;;22.00;56.40;;;;;;5016865;28;20442;-44
2022/06/13 09:17:13;;;;;;;5.03;2.87;;;21.90;56.50;;;;;;5016065;28;20594;-45
2022/06/13 09:19:48;;;;;;;8.77;2.63;;;21.90;56.40;;;;;;5016561;28;20440;-45
2022/06/13 09:22:21;;;;;;;7.10;3.50;;;22.00;56.50;;;;;;5016721;28;20442;-44
2022/06/13 09:24:53;;;;;;;6.33;2.20;;;22.50;57.00;;;;;;5016375;28;20439;-44
2022/06/13 09:27:25;;;;;;;6.40;2.87;;;22.20;56.20;;;;;;5016667;28;20522;-45
2022/06/13 09:29:59;;;;;;;5.10;1.97;;;22.20;56.50;;;;;;5016408;28;20433;-44
2022/06/13 09:32:32;;;;;;;6.67;2.30;;;21.80;56.90;;;;;;5016060;28;20458;-44
2022/06/13 09:35:10;;;;;;;4.83;2.40;;;21.70;57.30;;;;;;5015428;28;20534;-45
2022/06/13 09:37:44;;;;;;;5.17;2.30;;;21.60;57.90;;;;;;5015187;28;20554;-45
2022/06/13 09:40:12;;;;;;;5.00;2.43;;;21.30;57.90;;;;;;5015003;28;20500;-45
2022/06/13 09:43:02;;;;;;;6.37;2.50;;;21.30;58.20;;;;;;5014886;28;21011;-45
2022/06/13 09:45:50;;;;;;;8.00;2.30;;;21.60;58.10;;;;;;5014367;28;20981;-44
2022/06/13 09:48:29;;;;;;;5.90;2.17;;;21.50;57.70;;;;;;5015419;28;20775;-45
2022/06/13 09:51:07;;;;;;;8.33;2.10;;;21.30;57.10;;;;;;5013379;28;20452;-44
2022/06/13 09:53:41;;;;;;;5.90;2.00;;;21.50;56.00;;;;;;5014682;28;20527;-45
2022/06/13 09:56:13;;;;;;;6.23;1.63;;;21.30;56.30;;;;;;5014954;28;20435;-45
2022/06/13 09:58:53;;;;;;;6.27;2.40;;;21.40;56.00;;;;;;5014874;28;20482;-44
2022/06/13 10:01:30;;;;;;;9.80;2.30;;;21.20;56.00;;;;;;5015021;28;20442;-45
2022/06/13 10:04:04;;;;;;;6.57;2.20;;;21.20;55.90;;;;;;5015637;28;20443;-45
2022/06/13 10:06:41;;;;;;;14.53;2.20;;;21.30;56.10;;;;;;5014903;28;20446;-45
2022/06/13 10:09:22;;;;;;;13.37;2.53;;;20.90;55.90;;;;;;5015018;28;20458;-45
2022/06/13 10:11:54;;;;;;;7.90;1.87;;;21.00;56.10;;;;;;5015366;28;20443;-45
2022/06/13 10:14:48;;;;;;;5.60;2.40;;;20.80;56.20;;;;;;5014714;28;20438;-46
2022/06/13 10:17:34;;;;;;;6.87;2.10;;;20.70;55.80;;;;;;5011422;28;20492;-44
2022/06/13 10:20:07;;;;;;;4.50;1.93;;;20.70;56.40;;;;;;5014747;28;20441;-45
2022/06/13 10:22:42;;;;;;;5.23;2.20;;;21.00;56.80;;;;;;5015223;28;20441;-44
2022/06/13 10:25:22;;;;;;;5.10;2.33;;;21.00;56.50;;;;;;5014344;28;20476;-44
2022/06/13 10:28:04;;;;;;;6.30;2.30;;;20.90;56.50;;;;;;5014025;28;20454;-44
2022/06/13 10:30:42;;;;;;;5.00;1.90;;;21.00;56.80;;;;;;5014717;28;20434;-45
2022/06/13 10:33:31;;;;;;;5.67;2.03;;;21.00;56.00;;;;;;5014446;28;20445;-46
2022/06/13 10:36:10;;;;;;;6.33;2.50;;;20.90;56.40;;;;;;5014439;28;20439;-45
2022/06/13 10:38:49;;;;;;;6.23;2.53;;;20.90;56.80;;;;;;5013521;28;20493;-45
2022/06/13 10:41:16;;;;;;;6.27;2.60;;;21.10;57.00;;;;;;5014043;28;20438;-45
2022/06/13 10:43:44;;;;;;;5.10;2.10;;;21.00;56.10;;;;;;5013776;28;20534;-45
2022/06/13 10:46:13;;;;;;;14.77;2.27;;;21.30;56.00;;;;;;5014785;28;20903;-44
2022/06/13 10:48:46;;;;;;;10.70;2.27;;;21.30;55.80;;;;;;5013033;28;20460;-45
2022/06/13 10:51:12;;;;;;;4.87;1.90;;;21.30;55.70;;;;;;5013985;28;20454;-45
2022/06/13 10:53:43;;;;;;;4.67;1.90;;;21.20;55.40;;;;;;5013948;28;20446;-44
2022/06/13 10:56:15;;;;;;;6.80;2.03;;;20.60;54.90;;;;;;5013456;28;20900;-44
2022/06/13 10:58:47;;;;;;;9.37;2.10;;;21.00;55.40;;;;;;5013623;28;20880;-44
2022/06/13 11:01:16;;;;;;;8.43;2.53;;;20.90;55.20;;;;;;5013107;28;20433;-45
2022/06/13 11:03:57;;;;;;;5.53;2.27;;;21.10;55.20;;;;;;5012909;28;20451;-44
2022/06/13 11:06:30;;;;;;;8.93;1.73;;;21.30;54.90;;;;;;5013643;28;20541;-44
2022/06/13 11:09:01;;;;;;;7.63;2.07;;;21.10;54.30;;;;;;5012643;28;20458;-44
2022/06/13 11:11:35;;;;;;;5.73;2.63;;;21.10;53.60;;;;;;5013803;28;20931;-44
2022/06/13 11:14:01;;;;;;;6.07;2.47;;;21.20;54.10;;;;;;5013963;28;20439;-44
2022/06/13 11:22:41;;;;;;;5.70;1.90;;;21.20;54.40;;;;;;5011319;28;20553;-45
2022/06/13 11:25:19;;;;;;;5.90;1.87;;;21.10;54.40;;;;;;5012087;28;20480;-45
2022/06/13 11:27:49;;;;;;;5.93;2.17;;;21.30;54.60;;;;;;5013115;28;20461;-45
2022/06/13 11:30:43;;;;;;;5.30;1.40;;;21.30;53.70;;;;;;5013484;28;20535;-45
2022/06/13 11:33:19;;;;;;;4.70;2.00;;;21.40;52.00;;;;;;4993901;28;20458;-45
2022/06/13 11:35:50;;;;;;;8.33;2.33;;;21.50;52.20;;;;;;4994294;28;20436;-45
2022/06/13 11:38:21;;;;;;;6.93;2.03;;;21.60;52.20;;;;;;4992541;28;21068;-45
2022/06/13 11:40:57;;;;;;;5.07;1.70;;;21.90;52.40;;;;;;5009038;28;20479;-45
2022/06/13 11:43:34;;;;;;;4.10;1.80;;;21.60;52.10;;;;;;5012523;28;20599;-46
2022/06/13 11:46:03;;;;;;;5.03;2.10;;;21.80;51.50;;;;;;5012443;28;20435;-45
2022/06/13 11:48:30;;;;;;;8.83;1.60;;;22.40;51.50;;;;;;5011891;28;21066;-44
2022/06/13 11:51:01;;;;;;;15.83;1.87;;;22.10;51.50;;;;;;5012489;28;20438;-45
2022/06/13 11:53:37;;;;;;;5.50;1.93;;;22.20;51.00;;;;;;5012763;28;20440;-45
2022/06/13 11:56:08;;;;;;;5.27;2.17;;;21.90;51.30;;;;;;5011097;28;20462;-44
2022/06/13 11:58:40;;;;;;;9.97;2.10;;;22.00;52.20;;;;;;5012432;28;20529;-44
2022/06/13 12:01:15;;;;;;;4.20;1.60;;;22.10;51.50;;;;;;5012544;28;20442;-45
2022/06/13 12:03:47;;;;;;;8.33;1.90;;;22.00;51.60;;;;;;5012655;28;20443;-46
2022/06/13 12:06:17;;;;;;;6.50;2.37;;;22.00;51.90;;;;;;5012007;28;20489;-45
2022/06/13 12:08:51;;;;;;;7.50;2.37;;;22.00;52.20;;;;;;5012432;28;20474;-45
2022/06/13 12:11:23;;;;;;;7.33;2.30;;;22.00;52.80;;;;;;5012662;28;20554;-44
2022/06/13 12:13:52;;;;;;;7.20;2.30;;;21.70;52.80;;;;;;5012847;28;20435;-45
2022/06/13 12:16:36;;;;;;;5.50;2.37;;;22.00;53.20;;;;;;5013218;28;20478;-45
2022/06/13 12:19:16;;;;;;;6.70;2.00;;;21.50;53.50;;;;;;5013070;28;20492;-44
2022/06/13 12:21:49;;;;;;;12.20;3.63;;;21.40;54.80;;;;;;5017370;28;20427;-44
2022/06/13 12:24:22;;;;;;;7.40;3.47;;;21.40;55.50;;;;;;5017424;28;20445;-44
2022/06/13 12:26:55;;;;;;;7.20;3.00;;;21.40;56.30;;;;;;5015765;28;20451;-45
2022/06/13 12:29:39;;;;;;;7.87;2.50;;;21.80;56.80;;;;;;5014958;28;20467;-45
2022/06/13 12:32:14;;;;;;;5.53;2.23;;;21.40;57.00;;;;;;5017186;28;20482;-45
2022/06/13 12:34:49;;;;;;;6.70;2.50;;;21.20;57.10;;;;;;5017342;28;20449;-45
2022/06/13 12:37:27;;;;;;;3.00;1.70;;;20.90;57.20;;;;;;5015376;28;20437;-46
2022/06/13 12:40:03;;;;;;;9.47;2.40;;;21.00;57.80;;;;;;5071329;22;20511;-51
2022/06/13 12:42:47;;;;;;;2.57;1.90;;;20.60;57.50;;;;;;5052681;28;20436;-51
2022/06/13 12:45:44;;;;;;;3.80;2.10;;;21.10;58.20;;;;;;5053092;28;20460;-51
2022/06/13 12:48:34;;;;;;;2.33;1.30;;;21.20;57.00;;;;;;5049177;28;20985;-51
2022/06/13 12:51:24;;;;;;;3.90;1.97;;;21.30;56.70;;;;;;5033541;28;20972;-51
2022/06/13 12:54:07;;;;;;;3.13;2.00;;;21.60;56.00;;;;;;5033392;28;20926;-50
2022/06/13 12:56:44;;;;;;;10.43;2.50;;;21.60;55.70;;;;;;5033323;28;20442;-51
2022/06/13 12:59:27;;;;;;;6.60;1.67;;;21.60;55.60;;;;;;5033032;28;20501;-51
2022/06/13 13:02:10;;;;;;;8.60;1.50;;;21.40;54.90;;;;;;5033651;28;20472;-51
2022/06/13 13:04:52;;;;;;;9.70;5.97;;;21.50;54.90;;;;;;5033452;28;20435;-51
2022/06/13 13:07:26;;;;;;;3.07;1.70;;;21.30;54.80;;;;;;5033333;28;20533;-51
2022/06/13 13:10:11;;;;;;;4.07;2.20;;;21.10;54.40;;;;;;5031531;28;20597;-51
2022/06/13 13:13:12;;;;;;;11.73;2.90;;;21.20;54.20;;;;;;5033262;28;20438;-51
2022/06/13 13:15:45;;;;;;;6.43;2.27;;;21.10;54.30;;;;;;5033341;28;20467;-51
2022/06/13 13:18:23;;;;;;;5.00;1.70;;;21.50;54.30;;;;;;5033425;28;20482;-51
2022/06/13 13:20:55;;;;;;;5.00;1.90;;;21.30;54.30;;;;;;5033432;28;20435;-51
2022/06/13 13:23:31;;;;;;;4.57;2.20;;;21.80;55.00;;;;;;5033135;28;20497;-51
2022/06/13 13:26:08;;;;;;;6.10;2.50;;;21.80;55.80;;;;;;5032825;28;20437;-51
2022/06/13 13:28:47;;;;;;;7.17;2.10;;;21.70;57.50;;;;;;5030827;28;20470;-51
2022/06/13 13:31:20;;;;;;;5.83;1.90;;;21.90;58.20;;;;;;5032697;28;20529;-51
2022/06/13 13:34:04;;;;;;;5.80;2.10;;;21.90;58.40;;;;;;5033506;28;20446;-51